Time;durP1;ratioP1;P1;durP2;ratioP2;P2;SDS_P1;SDS_P2;PMS_P1;PMS_P2;Temp;Humidity;BMP_temperature;BMP_pressure;BME280_temperature;BME280_humidity;BME280_pressure;Samples;Min_cycle;Max_cycle;Signal;HPM_P1;HPM_P2
2024/01/23 00:01:59;;;;;;;18.73;13.20;;;;;;;;;;4934044;29;20189;-59
2024/01/23 00:04:24;;;;;;;20.80;13.88;;;;;;;;;;4933438;29;20080;-58
2024/01/23 00:06:50;;;;;;;19.38;12.55;;;;;;;;;;4934893;29;20493;-59
2024/01/23 00:09:15;;;;;;;24.42;14.25;;;;;;;;;;4932966;29;20068;-58
2024/01/23 00:11:40;;;;;;;19.67;13.93;;;;;;;;;;4939456;29;20052;-58
2024/01/23 00:14:06;;;;;;;21.50;11.63;;;;;;;;;;4935071;29;20043;-58
2024/01/23 00:16:31;;;;;;;22.70;12.68;;;;;;;;;;4928829;29;20058;-59
2024/01/23 00:18:56;;;;;;;16.52;11.00;;;;;;;;;;4937022;29;20071;-59
2024/01/23 00:21:22;;;;;;;16.80;10.55;;;;;;;;;;4938886;29;20095;-57
2024/01/23 00:23:47;;;;;;;13.32;10.05;;;;;;;;;;4936036;29;20043;-60
2024/01/23 00:26:13;;;;;;;14.25;9.60;;;;;;;;;;4931128;29;20039;-59
2024/01/23 00:28:38;;;;;;;16.08;9.50;;;;;;;;;;4934827;29;20151;-59
2024/01/23 00:31:03;;;;;;;16.10;9.00;;;;;;;;;;4936768;29;20039;-59
2024/01/23 00:33:29;;;;;;;14.52;8.05;;;;;;;;;;4932438;29;20118;-57
2024/01/23 00:35:55;;;;;;;16.10;10.32;;;;;;;;;;4936667;29;20122;-59
2024/01/23 00:38:20;;;;;;;13.93;10.27;;;;;;;;;;4932627;29;20521;-59
2024/01/23 00:40:46;;;;;;;12.43;9.38;;;;;;;;;;4937341;29;20044;-59
2024/01/23 00:43:12;;;;;;;12.73;9.73;;;;;;;;;;4935426;29;20020;-59
2024/01/23 00:45:38;;;;;;;13.93;11.88;;;;;;;;;;4936409;29;20147;-59
2024/01/23 00:48:04;;;;;;;15.68;9.85;;;;;;;;;;4935141;29;20023;-59
2024/01/23 00:50:29;;;;;;;16.25;9.63;;;;;;;;;;4937921;29;20035;-58
2024/01/23 00:52:54;;;;;;;14.55;10.90;;;;;;;;;;4932248;29;20047;-58
2024/01/23 00:55:20;;;;;;;15.02;9.65;;;;;;;;;;4938085;29;20032;-58
2024/01/23 00:57:45;;;;;;;13.32;8.82;;;;;;;;;;4934866;29;20489;-59
2024/01/23 01:00:11;;;;;;;11.95;9.73;;;;;;;;;;4937447;29;20180;-57
2024/01/23 01:02:37;;;;;;;19.50;9.68;;;;;;;;;;4936381;29;20382;-58
2024/01/23 01:05:02;;;;;;;14.68;11.18;;;;;;;;;;4935191;29;20040;-60
2024/01/23 01:07:28;;;;;;;15.35;10.35;;;;;;;;;;4929832;29;20059;-59
2024/01/23 01:09:53;;;;;;;17.33;11.40;;;;;;;;;;4936407;29;20039;-60
2024/01/23 01:12:19;;;;;;;14.88;10.27;;;;;;;;;;4937319;29;20038;-58
2024/01/23 01:14:44;;;;;;;14.15;9.38;;;;;;;;;;4935040;29;20048;-58
2024/01/23 01:17:09;;;;;;;18.55;11.00;;;;;;;;;;4936548;29;20047;-59
2024/01/23 01:19:35;;;;;;;18.20;10.52;;;;;;;;;;4935414;29;20039;-58
2024/01/23 01:22:01;;;;;;;14.20;9.95;;;;;;;;;;4938460;29;20031;-59
2024/01/23 01:24:26;;;;;;;14.25;11.38;;;;;;;;;;4935729;29;20047;-57
2024/01/23 01:26:52;;;;;;;16.83;10.05;;;;;;;;;;4935246;29;20024;-59
2024/01/23 01:29:17;;;;;;;12.93;8.85;;;;;;;;;;4931205;29;20097;-59
2024/01/23 01:31:42;;;;;;;15.27;8.70;;;;;;;;;;4935479;29;20040;-60
2024/01/23 01:34:08;;;;;;;13.25;9.10;;;;;;;;;;4936215;29;20048;-59
2024/01/23 01:36:33;;;;;;;11.65;8.98;;;;;;;;;;4932863;29;20679;-59
2024/01/23 01:39:03;;;;;;;13.57;8.75;;;;;;;;;;4937277;29;20028;-59
2024/01/23 01:41:28;;;;;;;10.63;8.77;;;;;;;;;;4936899;29;20035;-58
2024/01/23 01:43:54;;;;;;;16.45;8.40;;;;;;;;;;4929063;29;20075;-58
2024/01/23 01:46:24;;;;;;;10.15;7.60;;;;;;;;;;4937531;29;20130;-59
2024/01/23 01:48:51;;;;;;;11.13;7.72;;;;;;;;;;4937362;29;20096;-58
2024/01/23 01:51:20;;;;;;;13.70;8.00;;;;;;;;;;4936283;29;20462;-59
2024/01/23 01:53:46;;;;;;;;;;;;;;;;;;4935181;29;20481;-58
2024/01/23 01:56:11;;;;;;;12.35;7.70;;;;;;;;;;4935750;29;19919;-59
2024/01/23 01:58:39;;;;;;;13.90;7.93;;;;;;;;;;4933584;29;20483;-59
2024/01/23 02:01:04;;;;;;;11.98;7.25;;;;;;;;;;4932830;29;20110;-58
2024/01/23 02:03:30;;;;;;;14.00;7.00;;;;;;;;;;4936105;29;20127;-60
2024/01/23 02:05:57;;;;;;;11.57;7.85;;;;;;;;;;4935275;29;20077;-59
2024/01/23 02:08:23;;;;;;;9.85;6.63;;;;;;;;;;4930647;29;20023;-57
2024/01/23 02:10:48;;;;;;;13.40;6.68;;;;;;;;;;4934905;29;20036;-59
2024/01/23 02:13:14;;;;;;;10.35;6.57;;;;;;;;;;4936450;29;20027;-59
2024/01/23 02:15:39;;;;;;;10.18;5.25;;;;;;;;;;4936802;29;20056;-59
2024/01/23 02:18:05;;;;;;;11.93;5.53;;;;;;;;;;4935974;29;20024;-60
2024/01/23 02:20:30;;;;;;;10.52;5.50;;;;;;;;;;4931729;29;20044;-59
2024/01/23 02:22:56;;;;;;;10.57;6.63;;;;;;;;;;4933638;29;20083;-60
2024/01/23 02:25:21;;;;;;;11.35;6.70;;;;;;;;;;4934867;29;20063;-59
2024/01/23 02:27:46;;;;;;;7.95;6.13;;;;;;;;;;4933757;29;20031;-58
2024/01/23 02:30:12;;;;;;;10.63;7.85;;;;;;;;;;4934168;29;20055;-58
2024/01/23 02:32:43;;;;;;;8.07;5.03;;;;;;;;;;4929861;29;20056;-58
2024/01/23 02:35:09;;;;;;;10.00;5.63;;;;;;;;;;4934229;29;20522;-59
2024/01/23 02:37:34;;;;;;;11.70;7.18;;;;;;;;;;4935671;29;20023;-59
2024/01/23 02:39:59;;;;;;;9.77;6.43;;;;;;;;;;4927598;29;20111;-60
2024/01/23 02:42:25;;;;;;;8.18;5.75;;;;;;;;;;4927285;29;20019;-58
2024/01/23 02:44:50;;;;;;;10.77;5.38;;;;;;;;;;4935146;29;20710;-59
2024/01/23 02:47:16;;;;;;;9.13;7.03;;;;;;;;;;4934254;29;20040;-58
2024/01/23 02:49:41;;;;;;;11.90;6.97;;;;;;;;;;4937484;29;20064;-57
2024/01/23 02:52:07;;;;;;;12.02;6.57;;;;;;;;;;4940287;29;20028;-59
2024/01/23 02:54:33;;;;;;;13.05;6.70;;;;;;;;;;4938934;29;20042;-59
2024/01/23 02:56:58;;;;;;;10.45;6.05;;;;;;;;;;4936611;29;20035;-57
2024/01/23 02:59:24;;;;;;;10.63;6.40;;;;;;;;;;4939685;29;20043;-58
2024/01/23 03:01:49;;;;;;;9.75;6.30;;;;;;;;;;4939839;29;20694;-58
2024/01/23 03:04:15;;;;;;;10.60;5.88;;;;;;;;;;4941521;28;20091;-59
2024/01/23 03:06:40;;;;;;;8.90;6.00;;;;;;;;;;4939375;29;20544;-58
2024/01/23 03:09:10;;;;;;;12.18;7.40;;;;;;;;;;4939866;29;20114;-58
2024/01/23 03:11:37;;;;;;;9.93;6.07;;;;;;;;;;4940119;29;20036;-59
2024/01/23 03:14:03;;;;;;;9.50;6.82;;;;;;;;;;4936329;29;20111;-59
2024/01/23 03:16:28;;;;;;;11.70;7.10;;;;;;;;;;4939972;29;20048;-56
2024/01/23 03:18:54;;;;;;;9.82;5.70;;;;;;;;;;4938594;29;20028;-57
2024/01/23 03:21:19;;;;;;;8.55;5.43;;;;;;;;;;4934027;29;20039;-58
2024/01/23 03:23:45;;;;;;;9.50;5.35;;;;;;;;;;4937478;29;20020;-59
2024/01/23 03:26:10;;;;;;;12.07;7.13;;;;;;;;;;4937558;29;20106;-58
2024/01/23 03:28:36;;;;;;;7.45;6.38;;;;;;;;;;4936644;29;20356;-60
2024/01/23 03:31:01;;;;;;;8.88;6.10;;;;;;;;;;4931851;29;20035;-58
2024/01/23 03:33:26;;;;;;;9.77;6.40;;;;;;;;;;4932683;29;20098;-59
2024/01/23 03:35:52;;;;;;;10.10;6.00;;;;;;;;;;4936914;29;20405;-58
2024/01/23 03:38:18;;;;;;;8.48;5.25;;;;;;;;;;4938276;29;20722;-59
2024/01/23 03:40:43;;;;;;;6.90;4.30;;;;;;;;;;4932593;29;20123;-60
2024/01/23 03:43:09;;;;;;;8.68;5.28;;;;;;;;;;4936787;29;20070;-55
2024/01/23 03:45:34;;;;;;;5.85;5.30;;;;;;;;;;4926737;28;20047;-58
2024/01/23 03:48:03;;;;;;;10.43;5.85;;;;;;;;;;4938350;29;20027;-56
2024/01/23 03:50:29;;;;;;;7.35;4.35;;;;;;;;;;4938095;29;20040;-59
2024/01/23 03:52:54;;;;;;;8.20;5.00;;;;;;;;;;4939353;29;20039;-59
2024/01/23 03:55:19;;;;;;;6.82;6.10;;;;;;;;;;4935150;29;20047;-60
2024/01/23 03:57:45;;;;;;;12.90;6.43;;;;;;;;;;4939248;29;20023;-57
2024/01/23 04:00:11;;;;;;;7.18;5.50;;;;;;;;;;4937954;29;20063;-57
2024/01/23 04:02:37;;;;;;;10.68;5.90;;;;;;;;;;4937240;29;20034;-58
2024/01/23 04:05:04;;;;;;;6.13;5.47;;;;;;;;;;4927399;29;20044;-59
2024/01/23 04:07:31;;;;;;;6.80;4.75;;;;;;;;;;4938853;29;20074;-58
2024/01/23 04:09:56;;;;;;;6.53;5.70;;;;;;;;;;4937189;29;20044;-59
2024/01/23 04:12:22;;;;;;;7.32;4.95;;;;;;;;;;4936473;29;20024;-59
2024/01/23 04:14:47;;;;;;;8.10;5.43;;;;;;;;;;4933540;29;20059;-59
2024/01/23 04:17:13;;;;;;;10.60;4.80;;;;;;;;;;4933034;29;20063;-59
2024/01/23 04:19:38;;;;;;;9.48;5.53;;;;;;;;;;4935987;29;20063;-58
2024/01/23 04:22:04;;;;;;;6.75;4.32;;;;;;;;;;4931333;29;20028;-58
2024/01/23 04:24:29;;;;;;;7.38;5.63;;;;;;;;;;4934810;29;20059;-58
2024/01/23 04:26:54;;;;;;;6.45;4.25;;;;;;;;;;4933928;29;20032;-59
2024/01/23 04:29:20;;;;;;;8.30;4.82;;;;;;;;;;4938593;29;20040;-59
2024/01/23 04:31:45;;;;;;;7.47;5.57;;;;;;;;;;4934026;29;20106;-56
2024/01/23 04:34:11;;;;;;;11.60;5.45;;;;;;;;;;4927247;29;20043;-58
2024/01/23 04:36:36;;;;;;;7.57;4.43;;;;;;;;;;4937609;29;20020;-58
2024/01/23 04:39:02;;;;;;;10.15;4.80;;;;;;;;;;4933228;29;20032;-58
2024/01/23 04:41:27;;;;;;;5.95;4.32;;;;;;;;;;4936889;29;20039;-58
2024/01/23 04:43:53;;;;;;;6.72;4.78;;;;;;;;;;4932108;29;20117;-59
2024/01/23 04:46:18;;;;;;;7.13;5.03;;;;;;;;;;4937411;29;20045;-60
2024/01/23 04:48:46;;;;;;;6.10;4.88;;;;;;;;;;4938020;29;20055;-56
2024/01/23 04:51:12;;;;;;;7.00;4.38;;;;;;;;;;4935159;29;20114;-58
2024/01/23 04:53:38;;;;;;;7.20;3.50;;;;;;;;;;4940242;29;20051;-59
2024/01/23 04:56:03;;;;;;;6.97;5.15;;;;;;;;;;4931392;29;20039;-59
2024/01/23 04:58:29;;;;;;;7.20;4.78;;;;;;;;;;4935296;29;20063;-59
2024/01/23 05:00:55;;;;;;;4.93;3.78;;;;;;;;;;4932099;29;20043;-59
2024/01/23 05:03:20;;;;;;;5.40;3.75;;;;;;;;;;4935754;29;20067;-59
2024/01/23 05:05:46;;;;;;;6.32;4.32;;;;;;;;;;4923327;29;20036;-57
2024/01/23 05:08:11;;;;;;;7.57;4.10;;;;;;;;;;4936480;29;20046;-58
2024/01/23 05:10:36;;;;;;;6.05;3.47;;;;;;;;;;4934916;29;20111;-59
2024/01/23 05:13:02;;;;;;;6.78;3.42;;;;;;;;;;4935598;29;20031;-59
2024/01/23 05:15:27;;;;;;;5.45;3.28;;;;;;;;;;4932657;29;20055;-56
2024/01/23 05:17:53;;;;;;;7.20;4.03;;;;;;;;;;4936089;29;20458;-58
2024/01/23 05:20:19;;;;;;;6.35;4.95;;;;;;;;;;4936866;29;20512;-59
2024/01/23 05:22:45;;;;;;;6.03;4.90;;;;;;;;;;4936884;29;20024;-55
2024/01/23 05:25:10;;;;;;;4.82;3.38;;;;;;;;;;4935118;29;20047;-57
2024/01/23 05:27:36;;;;;;;3.70;2.75;;;;;;;;;;4932540;29;20078;-59
2024/01/23 05:30:04;;;;;;;5.50;3.53;;;;;;;;;;4933731;29;20066;-59
2024/01/23 05:32:30;;;;;;;6.30;3.92;;;;;;;;;;4936590;29;20030;-58
2024/01/23 05:34:55;;;;;;;11.15;4.97;;;;;;;;;;4931834;29;20044;-59
2024/01/23 05:37:21;;;;;;;7.15;3.53;;;;;;;;;;4934477;29;20098;-59
2024/01/23 05:39:47;;;;;;;5.57;3.58;;;;;;;;;;4935285;29;20460;-59
2024/01/23 05:42:12;;;;;;;6.72;4.18;;;;;;;;;;4937063;29;20054;-59
2024/01/23 05:44:38;;;;;;;4.82;4.30;;;;;;;;;;4934455;29;20040;-57
2024/01/23 05:47:03;;;;;;;4.43;3.60;;;;;;;;;;4935629;29;20027;-59
2024/01/23 05:49:29;;;;;;;7.68;5.53;;;;;;;;;;4933871;29;20145;-60
2024/01/23 05:51:54;;;;;;;7.28;4.93;;;;;;;;;;4930421;29;20023;-57
2024/01/23 05:54:19;;;;;;;6.82;6.10;;;;;;;;;;4935493;29;20131;-59
2024/01/23 05:56:45;;;;;;;11.50;5.90;;;;;;;;;;4935661;29;20031;-59
2024/01/23 05:59:10;;;;;;;7.80;5.82;;;;;;;;;;4931665;29;20051;-59
2024/01/23 06:01:36;;;;;;;9.65;6.45;;;;;;;;;;4935567;29;20032;-59
2024/01/23 06:04:01;;;;;;;9.07;5.97;;;;;;;;;;4926187;29;20043;-58
2024/01/23 06:06:27;;;;;;;10.88;9.73;;;;;;;;;;4935034;29;20031;-59
2024/01/23 06:08:52;;;;;;;11.35;7.72;;;;;;;;;;4935864;29;20032;-59
2024/01/23 06:11:18;;;;;;;9.50;7.13;;;;;;;;;;4936379;29;20027;-58
2024/01/23 06:13:43;;;;;;;8.38;6.25;;;;;;;;;;4932471;29;20068;-58
2024/01/23 06:16:10;;;;;;;10.95;7.22;;;;;;;;;;4930246;29;20510;-56
2024/01/23 06:18:35;;;;;;;6.80;5.85;;;;;;;;;;4928233;29;20031;-60
2024/01/23 06:21:02;;;;;;;7.38;6.40;;;;;;;;;;4928226;29;20056;-59
2024/01/23 06:23:27;;;;;;;8.38;5.60;;;;;;;;;;4931677;28;20035;-59
2024/01/23 06:25:53;;;;;;;5.55;4.97;;;;;;;;;;4936088;29;20082;-60
2024/01/23 06:28:18;;;;;;;5.80;4.88;;;;;;;;;;4933929;29;20105;-58
2024/01/23 06:30:44;;;;;;;5.45;4.63;;;;;;;;;;4937054;29;20042;-59
2024/01/23 06:33:09;;;;;;;7.35;3.88;;;;;;;;;;4936127;29;20031;-58
2024/01/23 06:35:34;;;;;;;5.57;4.35;;;;;;;;;;4937886;29;20035;-56
2024/01/23 06:38:00;;;;;;;6.20;4.28;;;;;;;;;;4935573;29;20510;-59
2024/01/23 06:40:25;;;;;;;7.63;5.15;;;;;;;;;;4934166;29;20051;-60
2024/01/23 06:42:51;;;;;;;6.65;6.05;;;;;;;;;;4937743;29;20122;-60
2024/01/23 06:45:16;;;;;;;5.38;3.85;;;;;;;;;;4935933;29;20083;-60
2024/01/23 06:47:42;;;;;;;4.80;3.30;;;;;;;;;;4936919;29;20031;-60
2024/01/23 06:50:08;;;;;;;5.38;3.35;;;;;;;;;;4938073;29;20505;-59
2024/01/23 06:52:33;;;;;;;4.47;3.30;;;;;;;;;;4935405;29;20426;-60
2024/01/23 06:54:59;;;;;;;4.45;2.60;;;;;;;;;;4941078;29;20043;-60
2024/01/23 06:57:24;;;;;;;4.32;3.50;;;;;;;;;;4937873;29;20059;-60
2024/01/23 06:59:50;;;;;;;7.47;3.53;;;;;;;;;;4936506;29;20522;-58
2024/01/23 07:02:16;;;;;;;5.10;2.92;;;;;;;;;;4936425;29;20383;-59
2024/01/23 07:04:41;;;;;;;4.32;2.60;;;;;;;;;;4940697;29;20055;-61
2024/01/23 07:07:08;;;;;;;4.63;3.25;;;;;;;;;;4939351;29;20039;-60
2024/01/23 07:09:34;;;;;;;4.32;2.00;;;;;;;;;;4934269;29;20592;-59
2024/01/23 07:11:59;;;;;;;6.55;2.40;;;;;;;;;;4934468;29;20065;-60
2024/01/23 07:14:24;;;;;;;3.70;1.73;;;;;;;;;;4935472;29;20051;-59
2024/01/23 07:16:50;;;;;;;5.35;2.60;;;;;;;;;;4932942;29;20134;-60
2024/01/23 07:19:15;;;;;;;2.58;2.25;;;;;;;;;;4936870;29;20047;-60
2024/01/23 07:21:41;;;;;;;3.13;1.90;;;;;;;;;;4936599;29;20031;-59
2024/01/23 07:24:07;;;;;;;4.65;2.85;;;;;;;;;;4934719;29;20103;-60
2024/01/23 07:26:32;;;;;;;4.32;3.63;;;;;;;;;;4940272;29;20031;-60
2024/01/23 07:28:58;;;;;;;6.10;2.65;;;;;;;;;;4930107;28;20765;-58
2024/01/23 07:31:23;;;;;;;5.28;3.28;;;;;;;;;;4933624;29;20351;-59
2024/01/23 07:33:48;;;;;;;3.17;2.15;;;;;;;;;;4932085;29;20051;-58
2024/01/23 07:36:14;;;;;;;6.53;2.92;;;;;;;;;;4934364;29;20445;-59
2024/01/23 07:38:39;;;;;;;8.63;5.65;;;;;;;;;;4930268;29;20674;-59
2024/01/23 07:41:05;;;;;;;7.43;4.70;;;;;;;;;;4934251;29;20135;-59
2024/01/23 07:43:30;;;;;;;5.93;3.42;;;;;;;;;;4932975;29;20055;-60
2024/01/23 07:45:55;;;;;;;8.20;4.35;;;;;;;;;;4933359;29;20639;-59
2024/01/23 07:48:21;;;;;;;6.07;4.18;;;;;;;;;;4936514;29;20035;-61
2024/01/23 07:50:47;;;;;;;5.65;4.35;;;;;;;;;;4936297;29;20517;-59
2024/01/23 07:53:12;;;;;;;3.85;3.03;;;;;;;;;;4939870;29;20118;-60
2024/01/23 07:55:38;;;;;;;5.30;2.33;;;;;;;;;;4938362;29;20032;-59
2024/01/23 07:58:03;;;;;;;5.30;3.63;;;;;;;;;;4935990;29;20028;-57
2024/01/23 08:00:29;;;;;;;4.90;2.72;;;;;;;;;;4932994;29;20036;-57
2024/01/23 08:02:54;;;;;;;5.03;3.10;;;;;;;;;;4935451;29;20055;-59
2024/01/23 08:05:20;;;;;;;5.82;2.30;;;;;;;;;;4929033;29;20051;-60
2024/01/23 08:07:46;;;;;;;4.38;2.85;;;;;;;;;;4934770;29;20023;-59
2024/01/23 08:10:11;;;;;;;6.70;2.40;;;;;;;;;;4928914;29;20061;-59
2024/01/23 08:12:37;;;;;;;6.20;1.80;;;;;;;;;;4934331;29;20779;-59
2024/01/23 08:15:02;;;;;;;4.25;3.15;;;;;;;;;;4931224;29;20123;-57
2024/01/23 08:17:28;;;;;;;3.63;1.67;;;;;;;;;;4939256;29;20036;-59
2024/01/23 08:19:53;;;;;;;4.25;2.88;;;;;;;;;;4936377;29;20498;-58
2024/01/23 08:22:19;;;;;;;4.13;2.60;;;;;;;;;;4938542;29;20645;-59
2024/01/23 08:24:45;;;;;;;3.88;1.55;;;;;;;;;;4934649;29;20050;-57
2024/01/23 08:27:10;;;;;;;3.95;2.65;;;;;;;;;;4937799;29;20031;-57
2024/01/23 08:29:36;;;;;;;5.65;2.50;;;;;;;;;;4936437;29;20098;-60
2024/01/23 08:32:01;;;;;;;2.63;1.48;;;;;;;;;;4936178;29;20059;-57
2024/01/23 08:34:27;;;;;;;3.67;1.95;;;;;;;;;;4935891;29;20046;-59
2024/01/23 08:36:52;;;;;;;4.68;1.63;;;;;;;;;;4935572;29;20032;-59
2024/01/23 08:39:18;;;;;;;4.15;1.33;;;;;;;;;;4933613;29;20051;-60
2024/01/23 08:41:43;;;;;;;3.55;1.38;;;;;;;;;;4937496;29;20020;-59
2024/01/23 08:44:08;;;;;;;6.47;1.98;;;;;;;;;;4937769;29;20046;-56
2024/01/23 08:46:34;;;;;;;5.03;2.65;;;;;;;;;;4936876;29;20398;-57
2024/01/23 08:48:59;;;;;;;3.70;1.67;;;;;;;;;;4937090;29;20072;-60
2024/01/23 08:51:26;;;;;;;4.65;2.90;;;;;;;;;;4936414;29;20051;-59
2024/01/23 08:53:52;;;;;;;4.07;1.60;;;;;;;;;;4935474;29;20446;-58
2024/01/23 08:56:20;;;;;;;4.05;1.50;;;;;;;;;;4933314;29;20028;-55
2024/01/23 08:58:46;;;;;;;4.13;1.63;;;;;;;;;;4933795;29;20028;-60
2024/01/23 09:01:11;;;;;;;4.57;1.50;;;;;;;;;;4937358;29;20482;-59
2024/01/23 09:03:37;;;;;;;4.10;1.73;;;;;;;;;;4934574;29;20431;-59
2024/01/23 09:06:04;;;;;;;2.50;1.10;;;;;;;;;;4937044;29;20040;-61
2024/01/23 09:08:30;;;;;;;4.13;1.77;;;;;;;;;;4936163;29;20090;-61
2024/01/23 09:10:56;;;;;;;3.85;1.55;;;;;;;;;;4937597;29;20040;-60
2024/01/23 09:13:21;;;;;;;2.72;1.38;;;;;;;;;;4934811;29;20090;-60
2024/01/23 09:15:47;;;;;;;3.03;1.23;;;;;;;;;;4936919;29;20095;-59
2024/01/23 09:18:13;;;;;;;2.80;1.58;;;;;;;;;;4937236;29;20023;-57
2024/01/23 09:20:38;;;;;;;3.80;1.85;;;;;;;;;;4936434;29;20042;-60
2024/01/23 09:23:04;;;;;;;3.95;1.83;;;;;;;;;;4937178;29;20098;-59
2024/01/23 09:25:29;;;;;;;5.97;2.20;;;;;;;;;;4929233;29;20051;-60
2024/01/23 09:27:56;;;;;;;6.80;2.63;;;;;;;;;;4933279;29;20015;-57
2024/01/23 09:30:21;;;;;;;6.10;2.22;;;;;;;;;;4934845;29;24257;-60
2024/01/23 09:32:47;;;;;;;5.43;1.13;;;;;;;;;;4936080;29;20099;-60
2024/01/23 09:35:15;;;;;;;7.82;2.25;;;;;;;;;;4936330;29;20040;-60
2024/01/23 09:37:41;;;;;;;3.88;2.08;;;;;;;;;;4937306;29;20082;-59
2024/01/23 09:40:10;;;;;;;7.97;1.63;;;;;;;;;;4935866;29;20051;-60
2024/01/23 09:42:39;;;;;;;5.45;1.23;;;;;;;;;;4934459;29;20086;-60
2024/01/23 09:45:09;;;;;;;;;;;;;;;;;;4936633;29;20043;-59
2024/01/23 09:47:35;;;;;;;4.40;1.50;;;;;;;;;;4936415;29;20615;-60
2024/01/23 09:50:02;;;;;;;4.55;1.55;;;;;;;;;;4931966;29;20040;-60
2024/01/23 09:52:29;;;;;;;6.72;2.13;;;;;;;;;;4935312;29;20541;-59
2024/01/23 09:54:55;;;;;;;4.93;2.15;;;;;;;;;;4935409;29;20036;-59
2024/01/23 09:57:21;;;;;;;5.03;2.03;;;;;;;;;;4927449;29;20032;-60
2024/01/23 09:59:48;;;;;;;4.63;1.15;;;;;;;;;;4940581;29;20523;-59
2024/01/23 10:02:14;;;;;;;4.90;1.30;;;;;;;;;;4937162;29;20066;-60
2024/01/23 10:04:41;;;;;;;4.93;1.38;;;;;;;;;;4937323;29;20062;-58
2024/01/23 10:07:10;;;;;;;2.97;0.85;;;;;;;;;;4935797;29;20032;-60
2024/01/23 10:09:36;;;;;;;5.28;2.08;;;;;;;;;;4922881;29;20125;-57
2024/01/23 10:12:02;;;;;;;2.90;0.75;;;;;;;;;;4937139;29;20035;-60
2024/01/23 10:14:27;;;;;;;5.07;1.08;;;;;;;;;;4940707;29;20090;-60
2024/01/23 10:16:53;;;;;;;5.90;1.10;;;;;;;;;;4937848;29;20081;-59
2024/01/23 10:19:19;;;;;;;4.50;0.98;;;;;;;;;;4936041;29;20533;-60
2024/01/23 10:21:46;;;;;;;4.97;1.65;;;;;;;;;;4931995;29;20032;-58
2024/01/23 10:24:11;;;;;;;4.05;1.63;;;;;;;;;;4935769;29;21043;-59
2024/01/23 10:26:37;;;;;;;2.67;0.75;;;;;;;;;;4936134;29;20163;-59
2024/01/23 10:29:02;;;;;;;4.60;1.05;;;;;;;;;;4935585;29;20043;-59
2024/01/23 10:31:28;;;;;;;4.30;1.70;;;;;;;;;;4938381;29;20036;-60
2024/01/23 10:33:53;;;;;;;5.50;1.73;;;;;;;;;;4938531;29;20067;-60
2024/01/23 10:36:20;;;;;;;2.42;0.90;;;;;;;;;;4939163;29;20039;-60
2024/01/23 10:38:50;;;;;;;2.33;1.45;;;;;;;;;;4941059;29;20036;-59
2024/01/23 10:41:17;;;;;;;2.55;1.13;;;;;;;;;;4938793;29;20032;-60
2024/01/23 10:43:45;;;;;;;2.65;0.90;;;;;;;;;;4939527;29;20036;-60
2024/01/23 10:46:11;;;;;;;4.03;1.33;;;;;;;;;;4938576;29;20075;-59
2024/01/23 10:48:37;;;;;;;5.57;1.63;;;;;;;;;;4939476;29;20031;-60
2024/01/23 10:51:19;;;;;;;4.40;1.40;;;;;;;;;;4938799;29;20031;-60
2024/01/23 10:53:59;;;;;;;4.00;0.80;;;;;;;;;;4932832;29;20554;-58
2024/01/23 10:56:28;;;;;;;3.35;1.30;;;;;;;;;;4933787;29;20043;-58
2024/01/23 10:59:00;;;;;;;4.70;1.20;;;;;;;;;;4934421;29;20063;-60
2024/01/23 11:01:29;;;;;;;3.78;1.45;;;;;;;;;;4937544;29;20031;-60
2024/01/23 11:03:55;;;;;;;3.33;1.20;;;;;;;;;;4931944;29;20070;-58
2024/01/23 11:06:28;;;;;;;4.35;1.55;;;;;;;;;;4938554;29;20427;-57
2024/01/23 11:09:02;;;;;;;5.78;1.67;;;;;;;;;;4940314;29;20027;-59
2024/01/23 11:12:09;;;;;;;5.53;1.35;;;;;;;;;;4935505;29;20035;-60
2024/01/23 11:14:46;;;;;;;6.15;1.50;;;;;;;;;;4924203;29;20097;-60
2024/01/23 11:17:15;;;;;;;3.17;1.20;;;;;;;;;;4932119;29;20060;-58
2024/01/23 11:19:42;;;;;;;4.53;1.40;;;;;;;;;;4931356;29;20411;-59
2024/01/23 11:22:11;;;;;;;3.53;1.10;;;;;;;;;;4937681;29;20042;-58
2024/01/23 11:24:44;;;;;;;3.50;1.10;;;;;;;;;;4938037;29;20051;-59
2024/01/23 11:27:20;;;;;;;3.20;0.88;;;;;;;;;;4938616;29;20060;-60
2024/01/23 11:29:47;;;;;;;4.97;1.13;;;;;;;;;;4934561;29;20051;-60
2024/01/23 11:32:23;;;;;;;6.95;1.00;;;;;;;;;;4936757;29;22795;-60
2024/01/23 11:35:02;;;;;;;3.83;0.95;;;;;;;;;;4933322;29;20043;-61
2024/01/23 11:37:48;;;;;;;3.35;0.32;;;;;;;;;;4934486;29;20141;-61
2024/01/23 11:40:25;;;;;;;3.13;1.10;;;;;;;;;;4934711;29;20047;-60
2024/01/23 11:42:51;;;;;;;4.95;0.77;;;;;;;;;;4936061;29;20074;-61
2024/01/23 11:45:21;;;;;;;3.00;0.63;;;;;;;;;;4939304;29;20048;-60
2024/01/23 11:47:48;;;;;;;4.03;1.23;;;;;;;;;;4932545;29;20031;-60
2024/01/23 11:50:13;;;;;;;4.30;0.75;;;;;;;;;;4932865;29;20092;-61
2024/01/23 11:52:43;;;;;;;5.13;1.33;;;;;;;;;;4936364;29;20083;-61
2024/01/23 11:55:09;;;;;;;3.42;0.82;;;;;;;;;;4936450;29;20407;-61
2024/01/23 11:57:35;;;;;;;5.28;1.25;;;;;;;;;;4934244;29;20031;-60
2024/01/23 12:00:01;;;;;;;4.22;1.00;;;;;;;;;;4931956;29;20687;-59
2024/01/23 12:02:29;;;;;;;4.13;1.20;;;;;;;;;;4938902;29;20027;-60
2024/01/23 12:04:54;;;;;;;3.72;0.95;;;;;;;;;;4936733;29;20094;-59
2024/01/23 12:07:19;;;;;;;2.70;0.80;;;;;;;;;;4935681;29;20031;-60
2024/01/23 12:09:45;;;;;;;3.88;1.08;;;;;;;;;;4935248;29;20060;-60
2024/01/23 12:12:10;;;;;;;3.88;0.82;;;;;;;;;;4938109;29;20038;-58
2024/01/23 12:14:36;;;;;;;3.88;1.40;;;;;;;;;;4936217;29;20036;-58
2024/01/23 12:17:07;;;;;;;8.48;1.65;;;;;;;;;;4936338;29;20060;-61
2024/01/23 12:19:48;;;;;;;3.88;2.38;;;;;;;;;;4936818;29;20384;-60
2024/01/23 12:22:14;;;;;;;4.50;2.08;;;;;;;;;;4935646;29;20028;-60
2024/01/23 12:24:41;;;;;;;4.68;1.13;;;;;;;;;;4934184;29;20130;-61
2024/01/23 12:27:11;;;;;;;2.20;0.63;;;;;;;;;;4933387;29;20047;-59
2024/01/23 12:29:38;;;;;;;5.05;0.80;;;;;;;;;;4932674;29;20047;-61
2024/01/23 12:32:03;;;;;;;5.88;1.80;;;;;;;;;;4934953;29;20046;-60
2024/01/23 12:34:31;;;;;;;2.97;1.33;;;;;;;;;;4936502;29;20038;-60
2024/01/23 12:37:00;;;;;;;2.95;0.70;;;;;;;;;;4936766;29;20482;-60
2024/01/23 12:39:28;;;;;;;3.55;0.82;;;;;;;;;;4934703;29;20055;-61
2024/01/23 12:41:54;;;;;;;3.80;1.00;;;;;;;;;;4937432;29;20023;-61
2024/01/23 12:44:20;;;;;;;5.22;1.85;;;;;;;;;;4934019;29;20047;-61
2024/01/23 12:46:46;;;;;;;3.35;1.63;;;;;;;;;;4936488;29;20090;-60
2024/01/23 12:49:11;;;;;;;3.47;0.80;;;;;;;;;;4934775;29;20070;-61
2024/01/23 12:51:37;;;;;;;6.47;1.13;;;;;;;;;;4937860;29;20034;-61
2024/01/23 12:54:04;;;;;;;4.60;1.50;;;;;;;;;;4930488;29;20162;-61
2024/01/23 12:56:30;;;;;;;4.75;1.08;;;;;;;;;;4934390;29;20034;-61
2024/01/23 12:58:55;;;;;;;3.90;1.13;;;;;;;;;;4930857;29;20031;-61
2024/01/23 13:01:21;;;;;;;2.08;0.90;;;;;;;;;;4933984;29;20545;-61
2024/01/23 13:03:47;;;;;;;3.08;0.77;;;;;;;;;;4933193;29;20423;-61
2024/01/23 13:06:12;;;;;;;3.15;0.55;;;;;;;;;;4931005;29;20028;-61
2024/01/23 13:08:38;;;;;;;3.97;1.10;;;;;;;;;;4933222;29;20032;-61
2024/01/23 13:11:03;;;;;;;1.85;0.35;;;;;;;;;;4937358;29;20631;-60
2024/01/23 13:13:29;;;;;;;4.18;1.17;;;;;;;;;;4932290;29;20440;-61
2024/01/23 13:15:54;;;;;;;4.18;1.48;;;;;;;;;;4937219;29;20039;-61
2024/01/23 13:18:21;;;;;;;4.13;0.80;;;;;;;;;;4935092;29;20083;-58
2024/01/23 13:20:47;;;;;;;3.88;1.13;;;;;;;;;;4933648;29;20038;-60
2024/01/23 13:23:12;;;;;;;5.25;0.55;;;;;;;;;;4933934;29;20118;-62
2024/01/23 13:25:38;;;;;;;5.15;1.05;;;;;;;;;;4936059;29;20483;-60
2024/01/23 13:28:03;;;;;;;4.10;1.42;;;;;;;;;;4932250;29;20030;-60
2024/01/23 13:30:30;;;;;;;5.32;1.00;;;;;;;;;;4935305;29;20036;-62
2024/01/23 13:32:55;;;;;;;3.08;1.15;;;;;;;;;;4933474;29;20028;-61
2024/01/23 13:35:23;;;;;;;3.70;1.13;;;;;;;;;;4935166;29;20040;-60
2024/01/23 13:37:49;;;;;;;3.55;0.88;;;;;;;;;;4933563;29;20040;-61
2024/01/23 13:40:16;;;;;;;2.58;0.80;;;;;;;;;;4935129;29;20383;-61
2024/01/23 13:42:42;;;;;;;3.05;1.27;;;;;;;;;;4935524;29;20483;-61
2024/01/23 13:45:09;;;;;;;2.97;1.15;;;;;;;;;;4933703;29;20046;-59
2024/01/23 13:47:47;;;;;;;2.17;0.82;;;;;;;;;;4935223;29;20040;-61
2024/01/23 13:50:16;;;;;;;4.05;1.45;;;;;;;;;;4933097;29;20506;-61
2024/01/23 13:52:42;;;;;;;1.90;0.68;;;;;;;;;;4937763;29;20032;-61
2024/01/23 13:55:09;;;;;;;2.75;0.95;;;;;;;;;;4935415;29;20525;-61
2024/01/23 13:57:36;;;;;;;3.90;1.13;;;;;;;;;;4936245;29;20031;-60
2024/01/23 14:00:05;;;;;;;2.72;0.95;;;;;;;;;;4928850;29;20047;-61
2024/01/23 14:02:30;;;;;;;3.08;1.45;;;;;;;;;;4936856;29;20149;-61
2024/01/23 14:04:56;;;;;;;2.78;0.85;;;;;;;;;;4934874;29;20044;-59
2024/01/23 14:07:21;;;;;;;3.10;0.50;;;;;;;;;;4936359;29;20637;-60
2024/01/23 14:09:46;;;;;;;2.90;1.25;;;;;;;;;;4933149;29;20414;-62
2024/01/23 14:12:13;;;;;;;1.90;1.17;;;;;;;;;;4937273;29;20387;-61
2024/01/23 14:14:38;;;;;;;2.63;0.55;;;;;;;;;;4936184;29;20364;-61
2024/01/23 14:17:04;;;;;;;1.77;0.47;;;;;;;;;;4934767;29;20047;-61
2024/01/23 14:19:30;;;;;;;3.17;0.65;;;;;;;;;;4934706;29;20042;-61
2024/01/23 14:21:55;;;;;;;4.65;1.15;;;;;;;;;;4935437;29;20038;-61
2024/01/23 14:24:20;;;;;;;3.40;0.98;;;;;;;;;;4935161;29;20046;-59
2024/01/23 14:26:46;;;;;;;3.75;0.85;;;;;;;;;;4935263;29;20042;-58
2024/01/23 14:29:12;;;;;;;4.25;0.65;;;;;;;;;;4928052;29;20062;-59
2024/01/23 14:31:37;;;;;;;5.25;1.38;;;;;;;;;;4930279;29;21085;-58
2024/01/23 14:34:02;;;;;;;4.57;1.35;;;;;;;;;;4934576;29;20491;-59
2024/01/23 14:36:28;;;;;;;3.15;0.65;;;;;;;;;;4933325;29;20062;-58